Ulisse Primo — INLN — position and weather

sailwx.info

Track history (hours):
 
Tides and Currents Weather Stations Pressure Air Temp Water Temp Dewpoint Dewpoint Depression Visibility Wind Speed Wind Dir Waves Ship Positions

Ulisse Primo

Last reported at 2016-Jul-27 12:33 UTC. Time now 2016-Jul-27 13:27 UTC.
Position N 45°20' E 012°21'.

Length 50 m.

Type: Other ship. MMSI: 247033000.

Date/timePositionNaut miles runAvg speedWind from/ knotsBaromVisibWave heightAir tempDewpointWater temp
2016-Jul-27 12:33N 45°20' E 012°21'1 1.0
2016-Jul-27 11:33N 45°20' E 012°20'0 0.0
2016-Jul-27 10:33N 45°20' E 012°20'0 0.0
2016-Jul-27 09:33N 45°20' E 012°20'0 0.0
2016-Jul-27 08:33N 45°20' E 012°20'0 0.0
2016-Jul-27 07:33N 45°20' E 012°20'0 0.0
2016-Jul-27 06:33N 45°20' E 012°20'0 0.0
2016-Jul-27 05:34N 45°20' E 012°20'2 2.3
2016-Jul-27 04:34N 45°18' E 012°20'6 6.1
2016-Jul-27 03:34N 45°13' E 012°16'0 0.5
2016-Jul-27 02:33N 45°12' E 012°16'0 0.0
2016-Jul-27 01:33N 45°12' E 012°16'0 0.0
2016-Jul-27 00:33N 45°12' E 012°16'0 0.0
2016-Jul-26 23:34N 45°12' E 012°16'0 0.0
2016-Jul-26 22:33N 45°12' E 012°16'0 0.0
2016-Jul-26 21:33N 45°12' E 012°16'0 0.0
2016-Jul-26 20:33N 45°12' E 012°16'0 0.0
2016-Jul-26 19:33N 45°12' E 012°16'0 0.0
2016-Jul-26 18:33N 45°12' E 012°16'0 0.0
2016-Jul-26 17:34N 45°12' E 012°16'0 0.0
2016-Jul-26 16:33N 45°12' E 012°16'0 0.0
2016-Jul-26 15:33N 45°12' E 012°16'0 0.0
2016-Jul-26 14:33N 45°12' E 012°16'0 0.0
2016-Jul-26 13:33N 45°12' E 012°16'5 5.3
2016-Jul-26 12:33N 45°17' E 012°20'3 3.4
2016-Jul-26 11:33N 45°20' E 012°20'0 0.0
2016-Jul-26 10:33N 45°20' E 012°20'0 0.0
2016-Jul-26 09:33N 45°20' E 012°20'0 0.0
2016-Jul-26 08:33N 45°20' E 012°20'0 0.0
2016-Jul-26 07:33N 45°20' E 012°20'0 0.0
2016-Jul-26 06:34N 45°20' E 012°20'0 0.4
2016-Jul-26 05:33N 45°20' E 012°20'1 1.4
2016-Jul-26 04:33N 45°21' E 012°19'0 0.0
2016-Jul-26 03:34N 45°21' E 012°19'0 0.0
2016-Jul-26 02:33N 45°21' E 012°19'0 0.0
2016-Jul-26 01:34N 45°21' E 012°19'0 0.0
2016-Jul-26 00:33N 45°21' E 012°19'0 0.0
2016-Jul-25 23:34N 45°21' E 012°19'0 0.0
2016-Jul-25 22:34N 45°21' E 012°19'0 0.0
2016-Jul-25 21:34N 45°21' E 012°19'0 0.0
2016-Jul-25 20:33N 45°21' E 012°19'0 0.0
2016-Jul-25 19:34N 45°21' E 012°19'0 0.0
2016-Jul-25 18:33N 45°21' E 012°19'0 0.0
2016-Jul-25 17:34N 45°21' E 012°19'0 0.0
2016-Jul-25 16:33N 45°21' E 012°19'1 0.6
2016-Jul-25 15:34N 45°20' E 012°18'1 0.9
2016-Jul-25 14:33N 45°20' E 012°20'0 0.0
2016-Jul-25 13:33N 45°20' E 012°20'1 1.0
2016-Jul-25 12:33N 45°20' E 012°21'6 6.3
2016-Jul-25 11:33N 45°14' E 012°17'2 1.7
2016-Jul-25 10:30N 45°12' E 012°16'0 0.0
2016-Jul-25 09:33N 45°12' E 012°16'0 0.0
2016-Jul-25 08:33N 45°12' E 012°16'0 0.0
2016-Jul-25 07:33N 45°12' E 012°16'0 0.0
2016-Jul-25 06:34N 45°12' E 012°16'0 0.0
2016-Jul-25 05:33N 45°12' E 012°16'0 0.0
2016-Jul-25 04:33N 45°12' E 012°16'0 0.0
2016-Jul-25 03:33N 45°12' E 012°16'0 0.0
2016-Jul-25 02:33N 45°12' E 012°16'0 0.0
2016-Jul-25 01:33N 45°12' E 012°16'0 0.0
2016-Jul-25 00:33N 45°12' E 012°16'0 0.0
2016-Jul-24 23:33N 45°12' E 012°16'0 0.0
2016-Jul-24 22:33N 45°12' E 012°16'0 0.0
2016-Jul-24 21:33N 45°12' E 012°16'0 0.0
2016-Jul-24 20:33N 45°12' E 012°16'0 0.0
2016-Jul-24 19:33N 45°12' E 012°16'0 0.0
2016-Jul-24 18:33N 45°12' E 012°16'0 0.0
2016-Jul-24 17:33N 45°12' E 012°16'0 0.0
2016-Jul-24 16:33N 45°12' E 012°16'0 0.0
2016-Jul-24 15:33N 45°12' E 012°16'0 0.0
2016-Jul-24 14:33N 45°12' E 012°16'0 0.0
2016-Jul-24 13:33N 45°12' E 012°16'0 0.0
2016-Jul-24 12:34N 45°12' E 012°16'0 0.0
2016-Jul-24 11:34N 45°12' E 012°16'0 0.0
2016-Jul-24 10:33N 45°12' E 012°16'0 0.0
2016-Jul-24 09:33N 45°12' E 012°16'0 0.0
2016-Jul-24 08:33N 45°12' E 012°16'0 0.0
2016-Jul-24 07:33N 45°12' E 012°16'0 0.0
2016-Jul-24 06:34N 45°12' E 012°16'0 0.0
2016-Jul-24 05:33N 45°12' E 012°16'0 0.0
2016-Jul-24 04:33N 45°12' E 012°16'0 0.0
2016-Jul-24 03:34N 45°12' E 012°16'0 0.0
2016-Jul-24 02:33N 45°12' E 012°16'0 0.0
2016-Jul-24 01:34N 45°12' E 012°16'0 0.0
2016-Jul-24 00:33N 45°12' E 012°16'0 0.0
2016-Jul-23 23:34N 45°12' E 012°16'0 0.0
2016-Jul-23 22:33N 45°12' E 012°16'0 0.0
2016-Jul-23 21:34N 45°12' E 012°16'0 0.0
2016-Jul-23 20:33N 45°12' E 012°16'0 0.0
2016-Jul-23 19:34N 45°12' E 012°16'0 0.0
2016-Jul-23 18:33N 45°12' E 012°16'0 0.0
2016-Jul-23 17:33N 45°12' E 012°16'0 0.0
2016-Jul-23 16:33N 45°12' E 012°16'0 0.0
2016-Jul-23 15:33N 45°12' E 012°16'0 0.0
2016-Jul-23 14:33N 45°12' E 012°16'0 0.0
2016-Jul-23 13:33N 45°12' E 012°16'0 0.0
2016-Jul-23 12:33N 45°12' E 012°16'0 0.0
2016-Jul-23 11:33N 45°12' E 012°16'0 0.0
2016-Jul-23 10:34N 45°12' E 012°16'0 0.0
2016-Jul-23 09:34N 45°12' E 012°16'0 0.0
2016-Jul-23 08:33N 45°12' E 012°16'0 0.0
2016-Jul-23 07:33N 45°12' E 012°16'0 0.0
2016-Jul-23 06:33N 45°12' E 012°16'0 0.0
2016-Jul-23 04:33N 45°12' E 012°16'0 0.0
2016-Jul-23 03:33N 45°12' E 012°16'0 0.0
2016-Jul-23 02:33N 45°12' E 012°16'0 0.0
2016-Jul-23 01:33N 45°12' E 012°16'0 0.0
2016-Jul-23 00:33N 45°12' E 012°16'0 0.0
2016-Jul-22 23:33N 45°12' E 012°16'0 0.0
2016-Jul-22 22:33N 45°12' E 012°16'0 0.0
2016-Jul-22 21:23N 45°12' E 012°16'0 0.0
2016-Jul-22 20:33N 45°12' E 012°16'0 0.0
2016-Jul-22 19:33N 45°12' E 012°16'0 0.0
2016-Jul-22 18:33N 45°12' E 012°16'0 0.0
2016-Jul-22 17:33N 45°12' E 012°16'0 0.0
2016-Jul-22 16:33N 45°12' E 012°16'0 0.1
2016-Jul-22 15:33N 45°12' E 012°16'0 0.0
2016-Jul-22 14:32N 45°12' E 012°16'2 1.6
2016-Jul-22 13:33N 45°14' E 012°17'7 6.7
2016-Jul-22 12:33N 45°20' E 012°20'1 0.6
2016-Jul-22 11:33N 45°20' E 012°20'0 0.0
2016-Jul-22 10:33N 45°20' E 012°20'0 0.0
2016-Jul-22 09:33N 45°20' E 012°20'0 0.0
2016-Jul-22 08:33N 45°20' E 012°20'0 0.0
2016-Jul-22 07:33N 45°20' E 012°20'0 0.0
2016-Jul-22 05:33N 45°20' E 012°20'3 2.5
2016-Jul-22 04:33N 45°18' E 012°20'6 6.2
2016-Jul-22 03:33N 45°12' E 012°16'0 0.0
2016-Jul-22 02:33N 45°12' E 012°16'0 0.0
2016-Jul-22 01:33N 45°12' E 012°16'0 0.0
2016-Jul-22 00:33N 45°12' E 012°16'0 0.0
2016-Jul-21 23:33N 45°12' E 012°16'0 0.0
2016-Jul-21 22:33N 45°12' E 012°16'0 0.0
2016-Jul-21 21:33N 45°12' E 012°16'0 0.0
2016-Jul-21 20:33N 45°12' E 012°16'0 0.0
2016-Jul-21 19:33N 45°12' E 012°16'0 0.0
2016-Jul-21 18:34N 45°12' E 012°16'0 0.0
2016-Jul-21 17:33N 45°12' E 012°16'0 0.0
2016-Jul-21 16:33N 45°12' E 012°16'0 0.0
2016-Jul-21 15:33N 45°12' E 012°16'0 0.0
2016-Jul-21 14:33N 45°12' E 012°16'2 1.7
2016-Jul-21 13:33N 45°14' E 012°17'7 6.6
2016-Jul-21 12:33N 45°20' E 012°20'1 0.5
2016-Jul-21 11:33N 45°20' E 012°20'0 0.0
2016-Jul-21 10:32N 45°20' E 012°20'0 0.0
2016-Jul-21 09:33N 45°20' E 012°20'0 0.0
2016-Jul-21 08:33N 45°20' E 012°20'0 0.0
2016-Jul-21 07:33N 45°20' E 012°20'0 0.0
2016-Jul-21 06:33N 45°20' E 012°20'0 0.0
2016-Jul-21 05:33N 45°20' E 012°20'2 1.9
2016-Jul-21 04:33N 45°18' E 012°20'7 6.5
2016-Jul-21 03:33N 45°13' E 012°16'0 0.4
2016-Jul-21 02:33N 45°12' E 012°16'0 0.0
2016-Jul-21 01:34N 45°12' E 012°16'0 0.0
2016-Jul-21 00:33N 45°12' E 012°16'0 0.0
2016-Jul-20 23:33N 45°12' E 012°16'0 0.0
2016-Jul-20 22:33N 45°12' E 012°16'0 0.0
2016-Jul-20 21:33N 45°12' E 012°16'0 0.0
2016-Jul-20 20:33N 45°12' E 012°16'0 0.0
2016-Jul-20 19:33N 45°12' E 012°16'0 0.0
2016-Jul-20 18:33N 45°12' E 012°16'0 0.0
2016-Jul-20 17:33N 45°12' E 012°16'0 0.0
2016-Jul-20 16:33N 45°12' E 012°16'0 0.0
2016-Jul-20 15:33N 45°12' E 012°16'0 0.0
2016-Jul-20 14:33N 45°12' E 012°16'3 2.6
2016-Jul-20 13:33N 45°14' E 012°19'6 6.3
2016-Jul-20 12:33N 45°20' E 012°20'0 0.0
2016-Jul-20 11:33N 45°20' E 012°20'0 0.0
2016-Jul-20 10:33N 45°20' E 012°20'0 0.0
2016-Jul-20 09:34N 45°20' E 012°20'0 0.0
2016-Jul-20 08:33N 45°20' E 012°20'0 0.0
2016-Jul-20 07:33N 45°20' E 012°20'0 0.0
2016-Jul-20 06:34N 45°20' E 012°20'0 0.0
2016-Jul-20 05:33N 45°20' E 012°20'2 1.8
2016-Jul-20 04:33N 45°18' E 012°20'7 6.4
2016-Jul-20 03:32N 45°13' E 012°16'1 0.5
2016-Jul-20 02:33N 45°12' E 012°16'0 0.0
2016-Jul-20 01:33N 45°12' E 012°16'0 0.0
2016-Jul-20 00:33N 45°12' E 012°16'0 0.0
2016-Jul-19 23:33N 45°12' E 012°16'0 0.0
2016-Jul-19 22:33N 45°12' E 012°16'0 0.0
2016-Jul-19 21:33N 45°12' E 012°16'0 0.0
2016-Jul-19 20:33N 45°12' E 012°16'0 0.0
2016-Jul-19 19:33N 45°12' E 012°16'0 0.0
2016-Jul-19 18:33N 45°12' E 012°16'0 0.0
2016-Jul-19 17:33N 45°12' E 012°16'0 0.0
2016-Jul-19 16:33N 45°12' E 012°16'0 0.0
2016-Jul-19 15:33N 45°12' E 012°16'0 0.0
2016-Jul-19 14:33N 45°12' E 012°16'0 0.0
2016-Jul-19 13:33N 45°12' E 012°16'3 3.4
2016-Jul-19 12:33N 45°15' E 012°19'5 5.5
2016-Jul-19 11:33N 45°20' E 012°20'0 0.0
2016-Jul-19 10:33N 45°20' E 012°20'0 0.0
2016-Jul-19 09:33N 45°20' E 012°20'0 0.0
2016-Jul-19 08:33N 45°20' E 012°20'0 0.1
2016-Jul-19 07:33N 45°20' E 012°20'2 0.7
2016-Jul-19 04:33N 45°18' E 012°20'6 6.3
2016-Jul-19 03:33N 45°12' E 012°16'0 0.2
2016-Jul-19 02:33N 45°12' E 012°16'0 0.0
2016-Jul-19 01:33N 45°12' E 012°16'0 0.0
2016-Jul-19 00:33N 45°12' E 012°16'0 0.0
2016-Jul-18 23:33N 45°12' E 012°16'0 0.0
2016-Jul-18 22:33N 45°12' E 012°16'0 0.0
2016-Jul-18 21:33N 45°12' E 012°16'0 0.0
2016-Jul-18 20:33N 45°12' E 012°16'0 0.0
2016-Jul-18 19:33N 45°12' E 012°16'0 0.0
2016-Jul-18 18:33N 45°12' E 012°16'0 0.0
2016-Jul-18 17:33N 45°12' E 012°16'0 0.0
2016-Jul-18 16:33N 45°12' E 012°16'0 0.0
2016-Jul-18 15:33N 45°12' E 012°16'0 0.3
2016-Jul-18 14:33N 45°13' E 012°16'7 7.2
2016-Jul-18 13:33N 45°19' E 012°21'1 1.4
2016-Jul-18 12:33N 45°20' E 012°20'0 0.0
2016-Jul-18 11:33N 45°20' E 012°20'0 0.0
2016-Jul-18 10:34N 45°20' E 012°20'0 0.0
2016-Jul-18 09:33N 45°20' E 012°20'0 0.0
2016-Jul-18 08:33N 45°20' E 012°20'0 0.0
2016-Jul-18 07:33N 45°20' E 012°20'0 0.0
2016-Jul-18 06:33N 45°20' E 012°20'0 0.0
2016-Jul-18 05:33N 45°20' E 012°20'2 2.3
2016-Jul-18 04:33N 45°18' E 012°20'6 6.0
2016-Jul-18 03:33N 45°13' E 012°16'0 0.4
2016-Jul-18 02:33N 45°12' E 012°16'0 0.0
2016-Jul-18 01:33N 45°12' E 012°16'0 0.0
2016-Jul-18 00:33N 45°12' E 012°16'0 0.0
2016-Jul-17 23:34N 45°12' E 012°16'0 0.0
2016-Jul-17 22:33N 45°12' E 012°16'0 0.0
2016-Jul-17 21:33N 45°12' E 012°16'0 0.0
2016-Jul-17 20:33N 45°12' E 012°16'0 0.0
2016-Jul-17 19:34N 45°12' E 012°16'0 0.0
2016-Jul-17 18:33N 45°12' E 012°16'0 0.0
2016-Jul-17 17:33N 45°12' E 012°16'0 0.0
2016-Jul-17 16:33N 45°12' E 012°16'0 0.0
2016-Jul-17 15:33N 45°12' E 012°16'0 0.0
2016-Jul-17 14:33N 45°12' E 012°16'0 0.0
2016-Jul-17 13:33N 45°12' E 012°16'0 0.0
2016-Jul-17 12:33N 45°12' E 012°16'  
Track history (hours):
 
Tides and Currents Weather Stations Pressure Air Temp Water Temp Dewpoint Dewpoint Depression Visibility Wind Speed Wind Dir Waves Ship Positions

Ulisse Primo

Last reported at 2016-Jul-27 12:33 UTC. Time now 2016-Jul-27 13:27 UTC.
Position N 45°20' E 012°21'.

Length 50 m.

Type: Other ship. MMSI: 247033000.

Date/timePositionNaut miles runAvg speedWind from/ knotsBaromVisibWave heightAir tempDewpointWater temp
2016-Jul-27 12:33N 45°20' E 012°21'1 1.0
2016-Jul-27 11:33N 45°20' E 012°20'0 0.0
2016-Jul-27 10:33N 45°20' E 012°20'0 0.0
2016-Jul-27 09:33N 45°20' E 012°20'0 0.0
2016-Jul-27 08:33N 45°20' E 012°20'0 0.0
2016-Jul-27 07:33N 45°20' E 012°20'0 0.0
2016-Jul-27 06:33N 45°20' E 012°20'0 0.0
2016-Jul-27 05:34N 45°20' E 012°20'2 2.3
2016-Jul-27 04:34N 45°18' E 012°20'6 6.1
2016-Jul-27 03:34N 45°13' E 012°16'0 0.5
2016-Jul-27 02:33N 45°12' E 012°16'0 0.0
2016-Jul-27 01:33N 45°12' E 012°16'0 0.0
2016-Jul-27 00:33N 45°12' E 012°16'0 0.0
2016-Jul-26 23:34N 45°12' E 012°16'0 0.0
2016-Jul-26 22:33N 45°12' E 012°16'0 0.0
2016-Jul-26 21:33N 45°12' E 012°16'0 0.0
2016-Jul-26 20:33N 45°12' E 012°16'0 0.0
2016-Jul-26 19:33N 45°12' E 012°16'0 0.0
2016-Jul-26 18:33N 45°12' E 012°16'0 0.0
2016-Jul-26 17:34N 45°12' E 012°16'0 0.0
2016-Jul-26 16:33N 45°12' E 012°16'0 0.0
2016-Jul-26 15:33N 45°12' E 012°16'0 0.0
2016-Jul-26 14:33N 45°12' E 012°16'0 0.0
2016-Jul-26 13:33N 45°12' E 012°16'5 5.3
2016-Jul-26 12:33N 45°17' E 012°20'3 3.4
2016-Jul-26 11:33N 45°20' E 012°20'0 0.0
2016-Jul-26 10:33N 45°20' E 012°20'0 0.0
2016-Jul-26 09:33N 45°20' E 012°20'0 0.0
2016-Jul-26 08:33N 45°20' E 012°20'0 0.0
2016-Jul-26 07:33N 45°20' E 012°20'0 0.0
2016-Jul-26 06:34N 45°20' E 012°20'0 0.4
2016-Jul-26 05:33N 45°20' E 012°20'1 1.4
2016-Jul-26 04:33N 45°21' E 012°19'0 0.0
2016-Jul-26 03:34N 45°21' E 012°19'0 0.0
2016-Jul-26 02:33N 45°21' E 012°19'0 0.0
2016-Jul-26 01:34N 45°21' E 012°19'0 0.0
2016-Jul-26 00:33N 45°21' E 012°19'0 0.0
2016-Jul-25 23:34N 45°21' E 012°19'0 0.0
2016-Jul-25 22:34N 45°21' E 012°19'0 0.0
2016-Jul-25 21:34N 45°21' E 012°19'0 0.0
2016-Jul-25 20:33N 45°21' E 012°19'0 0.0
2016-Jul-25 19:34N 45°21' E 012°19'0 0.0
2016-Jul-25 18:33N 45°21' E 012°19'0 0.0
2016-Jul-25 17:34N 45°21' E 012°19'0 0.0
2016-Jul-25 16:33N 45°21' E 012°19'1 0.6
2016-Jul-25 15:34N 45°20' E 012°18'1 0.9
2016-Jul-25 14:33N 45°20' E 012°20'0 0.0
2016-Jul-25 13:33N 45°20' E 012°20'1 1.0
2016-Jul-25 12:33N 45°20' E 012°21'6 6.3
2016-Jul-25 11:33N 45°14' E 012°17'2 1.7
2016-Jul-25 10:30N 45°12' E 012°16'0 0.0
2016-Jul-25 09:33N 45°12' E 012°16'0 0.0
2016-Jul-25 08:33N 45°12' E 012°16'0 0.0
2016-Jul-25 07:33N 45°12' E 012°16'0 0.0
2016-Jul-25 06:34N 45°12' E 012°16'0 0.0
2016-Jul-25 05:33N 45°12' E 012°16'0 0.0
2016-Jul-25 04:33N 45°12' E 012°16'0 0.0
2016-Jul-25 03:33N 45°12' E 012°16'0 0.0
2016-Jul-25 02:33N 45°12' E 012°16'0 0.0
2016-Jul-25 01:33N 45°12' E 012°16'0 0.0
2016-Jul-25 00:33N 45°12' E 012°16'0 0.0
2016-Jul-24 23:33N 45°12' E 012°16'0 0.0
2016-Jul-24 22:33N 45°12' E 012°16'0 0.0
2016-Jul-24 21:33N 45°12' E 012°16'0 0.0
2016-Jul-24 20:33N 45°12' E 012°16'0 0.0
2016-Jul-24 19:33N 45°12' E 012°16'0 0.0
2016-Jul-24 18:33N 45°12' E 012°16'0 0.0
2016-Jul-24 17:33N 45°12' E 012°16'0 0.0
2016-Jul-24 16:33N 45°12' E 012°16'0 0.0
2016-Jul-24 15:33N 45°12' E 012°16'0 0.0
2016-Jul-24 14:33N 45°12' E 012°16'0 0.0
2016-Jul-24 13:33N 45°12' E 012°16'0 0.0
2016-Jul-24 12:34N 45°12' E 012°16'0 0.0
2016-Jul-24 11:34N 45°12' E 012°16'0 0.0
2016-Jul-24 10:33N 45°12' E 012°16'0 0.0
2016-Jul-24 09:33N 45°12' E 012°16'0 0.0
2016-Jul-24 08:33N 45°12' E 012°16'0 0.0
2016-Jul-24 07:33N 45°12' E 012°16'0 0.0
2016-Jul-24 06:34N 45°12' E 012°16'0 0.0
2016-Jul-24 05:33N 45°12' E 012°16'0 0.0
2016-Jul-24 04:33N 45°12' E 012°16'0 0.0
2016-Jul-24 03:34N 45°12' E 012°16'0 0.0
2016-Jul-24 02:33N 45°12' E 012°16'0 0.0
2016-Jul-24 01:34N 45°12' E 012°16'0 0.0
2016-Jul-24 00:33N 45°12' E 012°16'0 0.0
2016-Jul-23 23:34N 45°12' E 012°16'0 0.0
2016-Jul-23 22:33N 45°12' E 012°16'0 0.0
2016-Jul-23 21:34N 45°12' E 012°16'0 0.0
2016-Jul-23 20:33N 45°12' E 012°16'0 0.0
2016-Jul-23 19:34N 45°12' E 012°16'0 0.0
2016-Jul-23 18:33N 45°12' E 012°16'0 0.0
2016-Jul-23 17:33N 45°12' E 012°16'0 0.0
2016-Jul-23 16:33N 45°12' E 012°16'0 0.0
2016-Jul-23 15:33N 45°12' E 012°16'0 0.0
2016-Jul-23 14:33N 45°12' E 012°16'0 0.0
2016-Jul-23 13:33N 45°12' E 012°16'0 0.0
2016-Jul-23 12:33N 45°12' E 012°16'0 0.0
2016-Jul-23 11:33N 45°12' E 012°16'0 0.0
2016-Jul-23 10:34N 45°12' E 012°16'0 0.0
2016-Jul-23 09:34N 45°12' E 012°16'0 0.0
2016-Jul-23 08:33N 45°12' E 012°16'0 0.0
2016-Jul-23 07:33N 45°12' E 012°16'0 0.0
2016-Jul-23 06:33N 45°12' E 012°16'0 0.0
2016-Jul-23 04:33N 45°12' E 012°16'0 0.0
2016-Jul-23 03:33N 45°12' E 012°16'0 0.0
2016-Jul-23 02:33N 45°12' E 012°16'0 0.0
2016-Jul-23 01:33N 45°12' E 012°16'0 0.0
2016-Jul-23 00:33N 45°12' E 012°16'0 0.0
2016-Jul-22 23:33N 45°12' E 012°16'0 0.0
2016-Jul-22 22:33N 45°12' E 012°16'0 0.0
2016-Jul-22 21:23N 45°12' E 012°16'0 0.0
2016-Jul-22 20:33N 45°12' E 012°16'0 0.0
2016-Jul-22 19:33N 45°12' E 012°16'0 0.0
2016-Jul-22 18:33N 45°12' E 012°16'0 0.0
2016-Jul-22 17:33N 45°12' E 012°16'0 0.0
2016-Jul-22 16:33N 45°12' E 012°16'0 0.1
2016-Jul-22 15:33N 45°12' E 012°16'0 0.0
2016-Jul-22 14:32N 45°12' E 012°16'2 1.6
2016-Jul-22 13:33N 45°14' E 012°17'7 6.7
2016-Jul-22 12:33N 45°20' E 012°20'1 0.6
2016-Jul-22 11:33N 45°20' E 012°20'0 0.0
2016-Jul-22 10:33N 45°20' E 012°20'0 0.0
2016-Jul-22 09:33N 45°20' E 012°20'0 0.0
2016-Jul-22 08:33N 45°20' E 012°20'0 0.0
2016-Jul-22 07:33N 45°20' E 012°20'0 0.0
2016-Jul-22 05:33N 45°20' E 012°20'3 2.5
2016-Jul-22 04:33N 45°18' E 012°20'6 6.2
2016-Jul-22 03:33N 45°12' E 012°16'0 0.0
2016-Jul-22 02:33N 45°12' E 012°16'0 0.0
2016-Jul-22 01:33N 45°12' E 012°16'0 0.0
2016-Jul-22 00:33N 45°12' E 012°16'0 0.0
2016-Jul-21 23:33N 45°12' E 012°16'0 0.0
2016-Jul-21 22:33N 45°12' E 012°16'0 0.0
2016-Jul-21 21:33N 45°12' E 012°16'0 0.0
2016-Jul-21 20:33N 45°12' E 012°16'0 0.0
2016-Jul-21 19:33N 45°12' E 012°16'0 0.0
2016-Jul-21 18:34N 45°12' E 012°16'0 0.0
2016-Jul-21 17:33N 45°12' E 012°16'0 0.0
2016-Jul-21 16:33N 45°12' E 012°16'0 0.0
2016-Jul-21 15:33N 45°12' E 012°16'0 0.0
2016-Jul-21 14:33N 45°12' E 012°16'2 1.7
2016-Jul-21 13:33N 45°14' E 012°17'7 6.6
2016-Jul-21 12:33N 45°20' E 012°20'1 0.5
2016-Jul-21 11:33N 45°20' E 012°20'0 0.0
2016-Jul-21 10:32N 45°20' E 012°20'0 0.0
2016-Jul-21 09:33N 45°20' E 012°20'0 0.0
2016-Jul-21 08:33N 45°20' E 012°20'0 0.0
2016-Jul-21 07:33N 45°20' E 012°20'0 0.0
2016-Jul-21 06:33N 45°20' E 012°20'0 0.0
2016-Jul-21 05:33N 45°20' E 012°20'2 1.9
2016-Jul-21 04:33N 45°18' E 012°20'7 6.5
2016-Jul-21 03:33N 45°13' E 012°16'0 0.4
2016-Jul-21 02:33N 45°12' E 012°16'0 0.0
2016-Jul-21 01:34N 45°12' E 012°16'0 0.0
2016-Jul-21 00:33N 45°12' E 012°16'0 0.0
2016-Jul-20 23:33N 45°12' E 012°16'0 0.0
2016-Jul-20 22:33N 45°12' E 012°16'0 0.0
2016-Jul-20 21:33N 45°12' E 012°16'0 0.0
2016-Jul-20 20:33N 45°12' E 012°16'0 0.0
2016-Jul-20 19:33N 45°12' E 012°16'0 0.0
2016-Jul-20 18:33N 45°12' E 012°16'0 0.0
2016-Jul-20 17:33N 45°12' E 012°16'0 0.0
2016-Jul-20 16:33N 45°12' E 012°16'0 0.0
2016-Jul-20 15:33N 45°12' E 012°16'0 0.0
2016-Jul-20 14:33N 45°12' E 012°16'3 2.6
2016-Jul-20 13:33N 45°14' E 012°19'6 6.3
2016-Jul-20 12:33N 45°20' E 012°20'0 0.0
2016-Jul-20 11:33N 45°20' E 012°20'0 0.0
2016-Jul-20 10:33N 45°20' E 012°20'0 0.0
2016-Jul-20 09:34N 45°20' E 012°20'0 0.0
2016-Jul-20 08:33N 45°20' E 012°20'0 0.0
2016-Jul-20 07:33N 45°20' E 012°20'0 0.0
2016-Jul-20 06:34N 45°20' E 012°20'0 0.0
2016-Jul-20 05:33N 45°20' E 012°20'2 1.8
2016-Jul-20 04:33N 45°18' E 012°20'7 6.4
2016-Jul-20 03:32N 45°13' E 012°16'1 0.5
2016-Jul-20 02:33N 45°12' E 012°16'0 0.0
2016-Jul-20 01:33N 45°12' E 012°16'0 0.0
2016-Jul-20 00:33N 45°12' E 012°16'0 0.0
2016-Jul-19 23:33N 45°12' E 012°16'0 0.0
2016-Jul-19 22:33N 45°12' E 012°16'0 0.0
2016-Jul-19 21:33N 45°12' E 012°16'0 0.0
2016-Jul-19 20:33N 45°12' E 012°16'0 0.0
2016-Jul-19 19:33N 45°12' E 012°16'0 0.0
2016-Jul-19 18:33N 45°12' E 012°16'0 0.0
2016-Jul-19 17:33N 45°12' E 012°16'0 0.0
2016-Jul-19 16:33N 45°12' E 012°16'0 0.0
2016-Jul-19 15:33N 45°12' E 012°16'0 0.0
2016-Jul-19 14:33N 45°12' E 012°16'0 0.0
2016-Jul-19 13:33N 45°12' E 012°16'3 3.4
2016-Jul-19 12:33N 45°15' E 012°19'5 5.5
2016-Jul-19 11:33N 45°20' E 012°20'0 0.0
2016-Jul-19 10:33N 45°20' E 012°20'0 0.0
2016-Jul-19 09:33N 45°20' E 012°20'0 0.0
2016-Jul-19 08:33N 45°20' E 012°20'0 0.1
2016-Jul-19 07:33N 45°20' E 012°20'2 0.7
2016-Jul-19 04:33N 45°18' E 012°20'6 6.3
2016-Jul-19 03:33N 45°12' E 012°16'0 0.2
2016-Jul-19 02:33N 45°12' E 012°16'0 0.0
2016-Jul-19 01:33N 45°12' E 012°16'0 0.0
2016-Jul-19 00:33N 45°12' E 012°16'0 0.0
2016-Jul-18 23:33N 45°12' E 012°16'0 0.0
2016-Jul-18 22:33N 45°12' E 012°16'0 0.0
2016-Jul-18 21:33N 45°12' E 012°16'0 0.0
2016-Jul-18 20:33N 45°12' E 012°16'0 0.0
2016-Jul-18 19:33N 45°12' E 012°16'0 0.0
2016-Jul-18 18:33N 45°12' E 012°16'0 0.0
2016-Jul-18 17:33N 45°12' E 012°16'0 0.0
2016-Jul-18 16:33N 45°12' E 012°16'0 0.0
2016-Jul-18 15:33N 45°12' E 012°16'0 0.3
2016-Jul-18 14:33N 45°13' E 012°16'7 7.2
2016-Jul-18 13:33N 45°19' E 012°21'1 1.4
2016-Jul-18 12:33N 45°20' E 012°20'0 0.0
2016-Jul-18 11:33N 45°20' E 012°20'0 0.0
2016-Jul-18 10:34N 45°20' E 012°20'0 0.0
2016-Jul-18 09:33N 45°20' E 012°20'0 0.0
2016-Jul-18 08:33N 45°20' E 012°20'0 0.0
2016-Jul-18 07:33N 45°20' E 012°20'0 0.0
2016-Jul-18 06:33N 45°20' E 012°20'0 0.0
2016-Jul-18 05:33N 45°20' E 012°20'2 2.3
2016-Jul-18 04:33N 45°18' E 012°20'6 6.0
2016-Jul-18 03:33N 45°13' E 012°16'0 0.4
2016-Jul-18 02:33N 45°12' E 012°16'0 0.0
2016-Jul-18 01:33N 45°12' E 012°16'0 0.0
2016-Jul-18 00:33N 45°12' E 012°16'0 0.0
2016-Jul-17 23:34N 45°12' E 012°16'0 0.0
2016-Jul-17 22:33N 45°12' E 012°16'0 0.0
2016-Jul-17 21:33N 45°12' E 012°16'0 0.0
2016-Jul-17 20:33N 45°12' E 012°16'0 0.0
2016-Jul-17 19:34N 45°12' E 012°16'0 0.0
2016-Jul-17 18:33N 45°12' E 012°16'0 0.0
2016-Jul-17 17:33N 45°12' E 012°16'0 0.0
2016-Jul-17 16:33N 45°12' E 012°16'0 0.0
2016-Jul-17 15:33N 45°12' E 012°16'0 0.0
2016-Jul-17 14:33N 45°12' E 012°16'0 0.0
2016-Jul-17 13:33N 45°12' E 012°16'0 0.0
2016-Jul-17 12:33N 45°12' E 012°16'  

Dump ship's entire track history